createdAt,value
2017-12-16T00:00:53.013Z,98702.12
2017-12-16T00:03:20.596Z,98706.97
2017-12-16T00:05:48.165Z,98707.42
2017-12-16T00:08:15.734Z,98703.53
2017-12-16T00:10:43.211Z,98705.70
2017-12-16T00:13:10.776Z,98704.97
2017-12-16T00:15:38.293Z,98706.77
2017-12-16T00:18:05.776Z,98708.58
2017-12-16T00:20:33.264Z,98715.13
2017-12-16T00:23:00.717Z,98718.41
2017-12-16T00:25:28.186Z,98712.67
2017-12-16T00:27:55.687Z,98710.80
2017-12-16T00:30:23.170Z,98712.56
2017-12-16T00:32:50.666Z,98719.63
2017-12-16T00:35:18.134Z,98721.13
2017-12-16T00:37:45.626Z,98717.54
2017-12-16T00:40:13.162Z,98717.80
2017-12-16T00:42:40.790Z,98721.59
2017-12-16T00:45:08.279Z,98723.25
2017-12-16T00:47:35.789Z,98718.88
2017-12-16T00:50:03.303Z,98727.41
2017-12-16T00:52:30.879Z,98723.97
2017-12-16T00:55:01.936Z,98712.50
2017-12-16T00:57:29.514Z,98712.99
2017-12-16T00:59:56.971Z,98715.30
2017-12-16T01:02:24.438Z,98715.86
2017-12-16T01:04:51.901Z,98723.03
2017-12-16T01:07:19.493Z,98717.43
2017-12-16T01:09:47.011Z,98719.89
2017-12-16T01:12:14.651Z,98724.44
2017-12-16T01:14:42.233Z,98717.68
2017-12-16T01:17:09.791Z,98719.45
2017-12-16T01:19:37.472Z,98719.14
2017-12-16T01:22:04.917Z,98718.61
2017-12-16T01:24:32.403Z,98719.45
2017-12-16T01:26:59.865Z,98720.14
2017-12-16T01:29:27.328Z,98724.54
2017-12-16T01:31:54.824Z,98724.17
2017-12-16T01:34:34.166Z,98731.81
2017-12-16T01:37:13.321Z,98737.13
2017-12-16T01:39:40.878Z,98739.27
2017-12-16T01:42:08.575Z,98736.94
2017-12-16T01:44:36.133Z,98738.92
2017-12-16T01:47:03.590Z,98738.38
2017-12-16T01:49:31.169Z,98737.59
2017-12-16T01:51:58.641Z,98739.11
2017-12-16T01:54:26.095Z,98739.90
2017-12-16T01:56:53.607Z,98743.36
2017-12-16T01:59:21.105Z,98741.31
2017-12-16T02:01:48.626Z,98742.80
2017-12-16T02:04:16.129Z,98745.46
2017-12-16T02:06:43.616Z,98748.02
2017-12-16T02:09:11.293Z,98752.30
2017-12-16T02:11:38.745Z,98755.16
2017-12-16T02:14:06.224Z,98750.87
2017-12-16T02:16:33.756Z,98749.52
2017-12-16T02:19:01.245Z,98747.02
2017-12-16T02:21:28.806Z,98742.60
2017-12-16T02:23:56.363Z,98739.32
2017-12-16T02:26:23.828Z,98741.50
2017-12-16T02:28:51.393Z,98747.44
2017-12-16T02:31:18.851Z,98747.28
2017-12-16T02:33:46.326Z,98746.39
2017-12-16T02:36:13.836Z,98746.13
2017-12-16T02:38:41.401Z,98749.02
2017-12-16T02:41:09.058Z,98760.97
2017-12-16T02:43:36.645Z,98758.81
2017-12-16T02:46:04.155Z,98763.61
2017-12-16T02:48:31.692Z,98761.38
2017-12-16T02:50:59.167Z,98764.00
2017-12-16T02:53:26.661Z,98764.92
2017-12-16T02:55:54.215Z,98777.62
2017-12-16T02:58:21.690Z,98776.48
2017-12-16T03:00:49.866Z,98775.53
2017-12-16T03:03:17.339Z,98781.22
2017-12-16T03:05:44.858Z,98783.00
2017-12-16T03:08:12.331Z,98787.99
2017-12-16T03:10:39.857Z,98781.80
2017-12-16T03:13:07.318Z,98797.53
2017-12-16T03:15:34.787Z,98797.06
2017-12-16T03:18:02.266Z,98794.67
2017-12-16T03:20:29.738Z,98799.35
2017-12-16T03:22:57.307Z,98802.87
2017-12-16T03:25:24.762Z,98809.65
2017-12-16T03:27:52.229Z,98815.28
2017-12-16T03:30:19.718Z,98817.63
2017-12-16T03:32:47.285Z,98828.10
2017-12-16T03:35:14.742Z,98827.95
2017-12-16T03:37:42.256Z,98833.61
2017-12-16T03:40:09.711Z,98825.29
2017-12-16T03:42:37.184Z,98836.71
2017-12-16T03:45:04.641Z,98835.83
2017-12-16T03:47:32.218Z,98833.72
2017-12-16T03:49:59.665Z,98830.16
2017-12-16T03:52:27.130Z,98833.61
2017-12-16T03:54:54.680Z,98834.30
2017-12-16T03:57:22.138Z,98842.14
2017-12-16T03:59:49.632Z,98844.16
2017-12-16T04:02:17.097Z,98849.52
2017-12-16T04:04:44.620Z,98847.55
2017-12-16T04:07:12.096Z,98852.61
2017-12-16T04:09:39.627Z,98854.75
2017-12-16T04:12:07.136Z,98852.61
2017-12-16T04:14:34.693Z,98847.09
2017-12-16T04:17:02.150Z,98852.95
2017-12-16T04:19:29.601Z,98848.44
2017-12-16T04:21:57.067Z,98843.84
2017-12-16T04:24:24.903Z,98848.23
2017-12-16T04:26:52.399Z,98842.40
2017-12-16T04:29:20.115Z,98851.83
2017-12-16T04:31:47.616Z,98855.95
2017-12-16T04:34:15.066Z,98855.05
2017-12-16T04:36:42.548Z,98856.96
2017-12-16T04:39:10.010Z,98856.70
2017-12-16T04:41:37.501Z,98858.28
2017-12-16T04:44:04.969Z,98866.48
2017-12-16T04:46:32.456Z,98861.67
2017-12-16T04:48:59.931Z,98859.36
2017-12-16T04:51:27.386Z,98861.86
2017-12-16T04:53:54.947Z,98870.48
2017-12-16T04:56:22.425Z,98876.56
2017-12-16T04:58:49.985Z,98869.45
2017-12-16T05:01:18.283Z,98867.05
2017-12-16T05:03:45.808Z,98871.71
2017-12-16T05:06:13.265Z,98867.59
2017-12-16T05:08:40.737Z,98872.34
2017-12-16T05:11:08.211Z,98872.95
2017-12-16T05:13:35.662Z,98873.82
2017-12-16T05:16:03.142Z,98872.77
2017-12-16T05:18:30.593Z,98874.08
2017-12-16T05:20:58.137Z,98870.80
2017-12-16T05:23:25.619Z,98876.34
2017-12-16T05:25:53.188Z,98881.16
2017-12-16T05:28:20.669Z,98879.38
2017-12-16T05:30:48.234Z,98885.71
2017-12-16T05:33:15.682Z,98885.58
2017-12-16T05:35:43.161Z,98890.42
2017-12-16T05:38:10.632Z,98891.21
2017-12-16T05:40:38.106Z,98883.47
2017-12-16T05:43:05.605Z,98891.84
2017-12-16T05:45:33.149Z,98892.11
2017-12-16T05:48:00.611Z,98892.63
2017-12-16T05:50:28.089Z,98897.18
2017-12-16T05:52:55.573Z,98905.74
2017-12-16T05:55:23.051Z,98908.84
2017-12-16T05:57:50.608Z,98910.36
2017-12-16T06:00:18.079Z,98911.94
2017-12-16T06:02:45.548Z,98910.95
2017-12-16T06:05:13.024Z,98915.14
2017-12-16T06:07:40.500Z,98917.64
2017-12-16T06:10:07.973Z,98921.13
2017-12-16T06:12:35.433Z,98925.77
2017-12-16T06:15:02.948Z,98923.00
2017-12-16T06:17:30.420Z,98924.69
2017-12-16T06:19:57.957Z,98925.64
2017-12-16T06:22:25.404Z,98924.75
2017-12-16T06:24:52.874Z,98929.12
2017-12-16T06:27:20.377Z,98927.37
2017-12-16T06:29:47.896Z,98931.40
2017-12-16T06:32:15.356Z,98931.73
2017-12-16T06:34:42.832Z,98931.09
2017-12-16T06:37:10.345Z,98939.67
2017-12-16T06:39:37.934Z,98933.67
2017-12-16T06:42:05.397Z,98944.94
2017-12-16T06:44:32.860Z,98941.84
2017-12-16T06:47:00.346Z,98939.99
2017-12-16T06:49:27.807Z,98952.55
2017-12-16T06:51:55.275Z,98954.37
2017-12-16T06:54:22.730Z,98956.52
2017-12-16T06:56:50.204Z,98955.25
2017-12-16T06:59:17.704Z,98959.23
2017-12-16T07:01:45.255Z,98969.08
2017-12-16T07:04:12.706Z,98963.41
2017-12-16T07:06:40.202Z,98982.34
2017-12-16T07:09:07.670Z,98984.18
2017-12-16T07:11:35.128Z,98984.97
2017-12-16T07:14:02.694Z,98977.75
2017-12-16T07:16:30.378Z,98981.72
2017-12-16T07:18:57.831Z,98978.45
2017-12-16T07:21:25.330Z,98985.97
2017-12-16T07:23:52.809Z,98991.00
2017-12-16T07:26:20.262Z,98988.14
2017-12-16T07:28:47.727Z,98987.27
2017-12-16T07:31:15.201Z,98988.09
2017-12-16T07:33:42.670Z,98987.54
2017-12-16T07:36:10.160Z,98989.47
2017-12-16T07:38:37.742Z,98984.91
2017-12-16T07:41:05.201Z,98994.05
2017-12-16T07:43:32.780Z,98989.69
2017-12-16T07:46:00.234Z,98995.58
2017-12-16T07:48:28.533Z,98995.66
2017-12-16T07:50:56.097Z,99003.98
2017-12-16T07:53:23.553Z,99006.09
2017-12-16T07:55:51.088Z,99005.86
2017-12-16T07:58:18.610Z,99005.33
2017-12-16T08:00:46.827Z,99004.62
2017-12-16T08:03:14.291Z,99009.73
2017-12-16T08:05:41.851Z,99015.41
2017-12-16T08:08:09.415Z,99022.55
2017-12-16T08:10:36.862Z,99030.17
2017-12-16T08:13:04.364Z,99043.01
2017-12-16T08:15:31.941Z,99044.73
2017-12-16T08:17:59.409Z,99050.84
2017-12-16T08:20:26.966Z,99043.17
2017-12-16T08:22:54.698Z,99058.80
2017-12-16T08:25:22.221Z,99055.02
2017-12-16T08:27:49.704Z,99065.48
2017-12-16T08:30:17.183Z,99073.42
2017-12-16T08:32:44.635Z,99072.98
2017-12-16T08:35:12.090Z,99071.06
2017-12-16T08:37:39.603Z,99076.45
2017-12-16T08:40:07.194Z,99075.26
2017-12-16T08:42:34.642Z,99078.16
2017-12-16T08:45:02.198Z,99086.80
2017-12-16T08:47:29.660Z,99086.31
2017-12-16T08:49:57.120Z,99088.36
2017-12-16T08:52:24.613Z,99090.12
2017-12-16T08:54:52.183Z,99098.14
2017-12-16T08:57:22.280Z,99106.78
2017-12-16T08:59:50.407Z,99103.34
2017-12-16T09:02:17.966Z,99109.01
2017-12-16T09:04:45.497Z,99117.23
2017-12-16T09:07:12.962Z,99116.11
2017-12-16T09:09:40.487Z,99114.41
2017-12-16T09:12:07.947Z,99125.05
2017-12-16T09:14:35.402Z,99125.84
2017-12-16T09:17:02.861Z,99130.66
2017-12-16T09:19:30.364Z,99133.23
2017-12-16T09:21:57.841Z,99136.45
2017-12-16T09:24:25.406Z,99135.31
2017-12-16T09:26:52.974Z,99139.11
2017-12-16T09:29:20.436Z,99134.51
2017-12-16T09:31:47.914Z,99142.81
2017-12-16T09:34:15.379Z,99142.99
2017-12-16T09:36:42.861Z,99144.31
2017-12-16T09:39:10.433Z,99148.19
2017-12-16T09:41:37.893Z,99143.12
2017-12-16T09:44:05.372Z,99148.73
2017-12-16T09:46:32.841Z,99148.59
2017-12-16T09:49:00.434Z,99146.53
2017-12-16T09:51:27.890Z,99144.19
2017-12-16T09:53:55.461Z,99148.90
2017-12-16T09:56:22.942Z,99151.78
2017-12-16T09:58:50.514Z,99141.11
2017-12-16T10:01:18.127Z,99145.73
2017-12-16T10:03:45.592Z,99134.26
2017-12-16T10:06:13.114Z,99149.37
2017-12-16T10:08:40.570Z,99149.02
2017-12-16T10:11:08.070Z,99138.77
2017-12-16T10:13:35.638Z,99140.92
2017-12-16T10:16:03.207Z,99135.87
2017-12-16T10:18:30.682Z,99136.16
2017-12-16T10:20:58.260Z,99133.55
2017-12-16T10:23:25.741Z,99146.52
2017-12-16T10:25:53.209Z,99144.03
2017-12-16T10:28:20.683Z,99145.81
2017-12-16T10:30:48.146Z,99146.65
2017-12-16T10:33:15.596Z,99149.56
2017-12-16T10:35:43.070Z,99151.98
2017-12-16T10:38:10.528Z,99147.20
2017-12-16T10:40:38.034Z,99149.56
2017-12-16T10:43:05.653Z,99144.12
2017-12-16T10:45:33.177Z,99149.72
2017-12-16T10:48:00.741Z,99162.04
2017-12-16T10:50:28.411Z,99164.70
2017-12-16T10:52:55.904Z,99164.51
2017-12-16T10:55:23.370Z,99171.45
2017-12-16T10:57:50.840Z,99165.13
2017-12-16T11:00:18.303Z,99161.91
2017-12-16T11:02:45.869Z,99170.21
2017-12-16T11:05:13.322Z,99174.09
2017-12-16T11:07:40.811Z,99171.27
2017-12-16T11:10:08.496Z,99172.81
2017-12-16T11:12:35.973Z,99175.27
2017-12-16T11:15:03.582Z,99180.78
2017-12-16T11:17:31.044Z,99185.01
2017-12-16T11:19:58.579Z,99186.97
2017-12-16T11:22:26.032Z,99185.45
2017-12-16T11:24:53.488Z,99193.30
2017-12-16T11:27:20.993Z,99189.97
2017-12-16T11:29:48.563Z,99190.28
2017-12-16T11:32:16.020Z,99196.38
2017-12-16T11:34:43.518Z,99198.77
2017-12-16T11:37:11.030Z,99199.59
2017-12-16T11:39:38.559Z,99192.98
2017-12-16T11:42:06.121Z,99202.12
2017-12-16T11:44:33.601Z,99199.03
2017-12-16T11:47:01.168Z,99203.72
2017-12-16T11:49:28.715Z,99201.12
2017-12-16T11:51:56.216Z,99205.90
2017-12-16T11:54:23.693Z,99206.75
2017-12-16T11:56:51.257Z,99213.36
2017-12-16T11:59:18.747Z,99206.80
2017-12-16T12:01:46.197Z,99203.81
2017-12-16T12:04:13.678Z,99201.17
2017-12-16T12:06:41.134Z,99203.89
2017-12-16T12:09:08.605Z,99206.84
2017-12-16T12:11:36.069Z,99211.77
2017-12-16T12:14:03.526Z,99225.45
2017-12-16T12:16:30.998Z,99223.28
2017-12-16T12:18:58.688Z,99227.20
2017-12-16T12:21:26.143Z,99226.58
2017-12-16T12:23:53.604Z,99230.16
2017-12-16T12:26:21.073Z,99227.45
2017-12-16T12:28:48.627Z,99224.98
2017-12-16T12:31:16.081Z,99221.03
2017-12-16T12:33:43.611Z,99228.27
2017-12-16T12:36:11.094Z,99230.34
2017-12-16T12:38:38.670Z,99232.97
2017-12-16T12:41:06.139Z,99238.12
2017-12-16T12:43:33.653Z,99237.13
2017-12-16T12:46:01.105Z,99244.90
2017-12-16T12:48:28.585Z,99246.37
2017-12-16T12:50:56.125Z,99240.53
2017-12-16T12:53:23.583Z,99243.02
2017-12-16T12:55:51.116Z,99244.73
2017-12-16T12:58:18.578Z,99237.36
2017-12-16T13:00:46.050Z,99251.06
2017-12-16T13:03:13.523Z,99252.60
2017-12-16T13:05:41.151Z,99253.66
2017-12-16T13:08:08.864Z,99252.64
2017-12-16T13:10:36.325Z,99252.09
2017-12-16T13:13:03.774Z,99253.36
2017-12-16T13:15:31.338Z,99257.53
2017-12-16T13:17:58.881Z,99258.75
2017-12-16T13:20:26.351Z,99250.53
2017-12-16T13:22:53.811Z,99256.40
2017-12-16T13:25:21.330Z,99256.91
2017-12-16T13:27:48.809Z,99257.82
2017-12-16T13:30:16.496Z,99264.81
2017-12-16T13:32:43.958Z,99271.41
2017-12-16T13:35:11.419Z,99270.92
2017-12-16T13:37:38.892Z,99277.36
2017-12-16T13:40:06.342Z,99276.67
2017-12-16T13:42:33.819Z,99279.03
2017-12-16T13:45:01.277Z,99293.81
2017-12-16T13:47:28.765Z,99297.00
2017-12-16T13:49:56.224Z,99282.00
2017-12-16T13:52:23.743Z,99289.79
2017-12-16T13:54:51.214Z,99294.13
2017-12-16T13:57:18.670Z,99295.77
2017-12-16T13:59:46.142Z,99294.58
2017-12-16T14:02:13.606Z,99292.87
2017-12-16T14:04:41.165Z,99300.00
2017-12-16T14:07:08.618Z,99298.36
2017-12-16T14:09:36.087Z,99301.02
2017-12-16T14:12:03.587Z,99303.75
2017-12-16T14:14:31.071Z,99310.00
2017-12-16T14:16:58.530Z,99312.45
2017-12-16T14:19:26.000Z,99319.36
2017-12-16T14:21:53.480Z,99312.98
2017-12-16T14:24:20.933Z,99321.83
2017-12-16T14:26:48.393Z,99324.55
2017-12-16T14:29:15.916Z,99332.78
2017-12-16T14:31:43.395Z,99338.87
2017-12-16T14:34:10.856Z,99336.97
2017-12-16T14:36:38.323Z,99343.27
2017-12-16T14:39:05.826Z,99353.12
2017-12-16T14:41:33.290Z,99356.47
2017-12-16T14:44:00.775Z,99357.21
2017-12-16T14:46:28.225Z,99365.50
2017-12-16T14:48:55.711Z,99372.06
2017-12-16T14:51:23.180Z,99371.84
2017-12-16T14:53:51.408Z,99375.82
2017-12-16T14:56:18.919Z,99372.95
2017-12-16T14:58:46.454Z,99376.16
2017-12-16T15:01:13.962Z,99373.63
2017-12-16T15:03:41.429Z,99383.25
2017-12-16T15:06:08.905Z,99389.13
2017-12-16T15:08:36.389Z,99390.24
2017-12-16T15:11:03.891Z,99393.73
2017-12-16T15:13:31.355Z,99395.11
2017-12-16T15:15:58.866Z,99404.98
2017-12-16T15:18:26.316Z,99404.41
2017-12-16T15:20:53.775Z,99403.45
2017-12-16T15:23:21.283Z,99411.75
2017-12-16T15:25:48.751Z,99417.61
2017-12-16T15:28:16.202Z,99419.72
2017-12-16T15:30:43.712Z,99422.89
2017-12-16T15:33:11.228Z,99422.36
2017-12-16T15:35:38.729Z,99426.56
2017-12-16T15:38:06.270Z,99434.88
2017-12-16T15:40:33.715Z,99433.65
2017-12-16T15:43:01.227Z,99434.47
2017-12-16T15:45:28.675Z,99436.72
2017-12-16T15:47:56.146Z,99436.75
2017-12-16T15:50:23.615Z,99441.41
2017-12-16T15:52:51.124Z,99441.36
2017-12-16T15:55:18.572Z,99447.25
2017-12-16T15:57:46.037Z,99445.33
2017-12-16T16:00:13.642Z,99458.03
2017-12-16T16:02:41.165Z,99442.38
2017-12-16T16:05:08.656Z,99459.22
2017-12-16T16:07:36.216Z,99459.35
2017-12-16T16:10:03.726Z,99460.50
2017-12-16T16:12:31.223Z,99465.06
2017-12-16T16:14:58.689Z,99465.86
2017-12-16T16:17:26.158Z,99468.11
2017-12-16T16:19:53.622Z,99465.92
2017-12-16T16:22:21.196Z,99465.43
2017-12-16T16:24:48.694Z,99469.00
2017-12-16T16:27:16.183Z,99472.68
2017-12-16T16:29:43.645Z,99469.80
2017-12-16T16:32:11.102Z,99477.08
2017-12-16T16:34:38.607Z,99475.28
2017-12-16T16:37:06.125Z,99478.46
2017-12-16T16:39:33.635Z,99482.33
2017-12-16T16:42:01.140Z,99482.30
2017-12-16T16:44:28.737Z,99483.86
2017-12-16T16:46:56.267Z,99493.66
2017-12-16T16:49:23.727Z,99491.08
2017-12-16T16:51:51.199Z,99494.74
2017-12-16T16:54:18.649Z,99499.70
2017-12-16T16:56:46.168Z,99503.51
2017-12-16T16:59:13.727Z,99501.69
2017-12-16T17:01:41.336Z,99502.02
2017-12-16T17:04:08.920Z,99509.97
2017-12-16T17:06:36.489Z,99508.44
2017-12-16T17:09:04.041Z,99518.90
2017-12-16T17:11:31.499Z,99518.50
2017-12-16T17:13:59.015Z,99527.16
2017-12-16T17:16:26.519Z,99525.05
2017-12-16T17:18:54.065Z,99528.43
2017-12-16T17:21:21.544Z,99526.98
2017-12-16T17:23:49.018Z,99535.58
2017-12-16T17:26:16.510Z,99535.55
2017-12-16T17:28:44.142Z,99543.55
2017-12-16T17:31:11.720Z,99548.38
2017-12-16T17:33:39.201Z,99548.51
2017-12-16T17:36:06.674Z,99549.48
2017-12-16T17:38:34.124Z,99557.66
2017-12-16T17:41:01.599Z,99558.06
2017-12-16T17:43:29.065Z,99556.13
2017-12-16T17:45:56.532Z,99561.69
2017-12-16T17:48:24.038Z,99566.09
2017-12-16T17:50:51.500Z,99562.58
2017-12-16T17:53:18.965Z,99571.66
2017-12-16T17:55:46.432Z,99580.39
2017-12-16T17:58:13.929Z,99581.56
2017-12-16T18:00:41.436Z,99580.09
2017-12-16T18:03:08.884Z,99581.71
2017-12-16T18:05:36.360Z,99583.09
2017-12-16T18:08:03.885Z,99581.19
2017-12-16T18:10:31.363Z,99588.28
2017-12-16T18:12:58.862Z,99581.77
2017-12-16T18:15:26.316Z,99587.31
2017-12-16T18:17:53.832Z,99588.73
2017-12-16T18:20:21.345Z,99591.02
2017-12-16T18:22:48.853Z,99584.02
2017-12-16T18:25:16.360Z,99589.29
2017-12-16T18:27:43.889Z,99589.77
2017-12-16T18:30:11.412Z,99587.39
2017-12-16T18:32:38.948Z,99589.81
2017-12-16T18:35:06.487Z,99587.70
2017-12-16T18:37:33.990Z,99596.42
2017-12-16T18:40:01.601Z,99599.11
2017-12-16T18:42:29.111Z,99594.62
2017-12-16T18:44:56.626Z,99602.59
2017-12-16T18:47:24.084Z,99608.66
2017-12-16T18:49:51.603Z,99605.35
2017-12-16T18:52:19.112Z,99609.86
2017-12-16T18:54:46.672Z,99618.88
2017-12-16T18:57:14.209Z,99614.69
2017-12-16T18:59:41.720Z,99621.97
2017-12-16T19:02:09.257Z,99623.38
2017-12-16T19:04:37.083Z,99630.50
2017-12-16T19:07:04.587Z,99636.94
2017-12-16T19:09:32.101Z,99636.69
2017-12-16T19:11:59.624Z,99641.04
2017-12-16T19:14:27.073Z,99637.59
2017-12-16T19:16:54.610Z,99641.10
2017-12-16T19:19:22.151Z,99648.16
2017-12-16T19:21:49.680Z,99651.78
2017-12-16T19:24:17.212Z,99648.31
2017-12-16T19:26:44.723Z,99650.75
2017-12-16T19:29:12.226Z,99656.59
2017-12-16T19:31:39.815Z,99659.72
2017-12-16T19:34:07.301Z,99656.91
2017-12-16T19:36:34.834Z,99661.41
2017-12-16T19:39:02.538Z,99660.69
2017-12-16T19:41:29.997Z,99668.19
2017-12-16T19:43:57.465Z,99673.53
2017-12-16T19:46:25.046Z,99680.09
2017-12-16T19:48:52.565Z,99682.09
2017-12-16T19:51:20.730Z,99680.41
2017-12-16T19:53:48.188Z,99687.55
2017-12-16T19:56:15.743Z,99687.11
2017-12-16T19:58:43.327Z,99693.47
2017-12-16T20:01:10.786Z,99689.77
2017-12-16T20:03:38.268Z,99691.09
2017-12-16T20:06:05.810Z,99688.80
2017-12-16T20:08:33.352Z,99692.55
2017-12-16T20:11:00.903Z,99698.77
2017-12-16T20:13:28.412Z,99706.22
2017-12-16T20:15:55.941Z,99707.22
2017-12-16T20:18:23.526Z,99706.31
2017-12-16T20:20:50.993Z,99703.84
2017-12-16T20:23:18.568Z,99704.80
2017-12-16T20:25:46.211Z,99714.50
2017-12-16T20:28:13.748Z,99716.11
2017-12-16T20:30:41.262Z,99726.40
2017-12-16T20:33:08.901Z,99726.80
2017-12-16T20:35:36.418Z,99721.09
2017-12-16T20:38:03.934Z,99717.84
2017-12-16T20:40:31.471Z,99713.07
2017-12-16T20:42:58.985Z,99721.28
2017-12-16T20:45:26.506Z,99720.08
2017-12-16T20:47:54.078Z,99717.85
2017-12-16T20:50:21.604Z,99718.81
2017-12-16T20:52:49.110Z,99718.41
2017-12-16T20:55:16.628Z,99721.67
2017-12-16T20:57:44.156Z,99725.42
2017-12-16T21:00:16.353Z,99726.22
2017-12-16T21:02:43.993Z,99732.02
2017-12-16T21:05:11.689Z,99732.05
2017-12-16T21:07:39.282Z,99737.39
2017-12-16T21:10:06.794Z,99734.80
2017-12-16T21:12:34.313Z,99738.81
2017-12-16T21:15:01.979Z,99737.15
2017-12-16T21:17:29.495Z,99744.69
2017-12-16T21:19:57.008Z,99743.98
2017-12-16T21:22:24.602Z,99746.98
2017-12-16T21:24:52.113Z,99750.82
2017-12-16T21:27:23.155Z,99752.30
2017-12-16T21:29:50.710Z,99759.92
2017-12-16T21:32:18.204Z,99757.68
2017-12-16T21:34:45.725Z,99761.10
2017-12-16T21:37:13.325Z,99761.47
2017-12-16T21:39:40.899Z,99761.38
2017-12-16T21:42:08.439Z,99767.64
2017-12-16T21:44:36.591Z,99767.56
2017-12-16T21:47:04.116Z,99760.90
2017-12-16T21:49:31.636Z,99769.36
2017-12-16T21:51:59.146Z,99770.91
2017-12-16T21:54:26.680Z,99770.45
2017-12-16T21:56:54.167Z,99777.94
2017-12-16T21:59:21.697Z,99777.30
2017-12-16T22:01:49.354Z,99780.48
2017-12-16T22:04:17.008Z,99783.03
2017-12-16T22:06:44.522Z,99791.98
2017-12-16T22:09:12.030Z,99791.77
2017-12-16T22:11:39.538Z,99797.80
2017-12-16T22:14:07.038Z,99800.49
2017-12-16T22:16:34.582Z,99796.20
2017-12-16T22:19:02.168Z,99800.31
2017-12-16T22:21:29.792Z,99803.83
2017-12-16T22:23:57.417Z,99802.47
2017-12-16T22:26:24.964Z,99811.81
2017-12-16T22:28:52.470Z,99800.22
2017-12-16T22:31:20.003Z,99805.53
2017-12-16T22:33:47.518Z,99805.09
2017-12-16T22:36:15.046Z,99805.97
2017-12-16T22:38:42.622Z,99808.75
2017-12-16T22:41:10.242Z,99811.97
2017-12-16T22:43:37.782Z,99808.76
2017-12-16T22:46:05.347Z,99809.20
2017-12-16T22:48:32.864Z,99807.18
2017-12-16T22:51:00.379Z,99803.52
2017-12-16T22:53:27.902Z,99806.64
2017-12-16T22:55:55.424Z,99806.02
2017-12-16T22:58:22.945Z,99804.39
2017-12-16T23:00:51.410Z,99810.35
2017-12-16T23:03:18.922Z,99805.51
2017-12-16T23:05:46.419Z,99814.42
2017-12-16T23:08:14.012Z,99807.38
2017-12-16T23:10:41.591Z,99815.79
2017-12-16T23:13:09.123Z,99817.06
2017-12-16T23:15:36.617Z,99816.66
2017-12-16T23:18:04.099Z,99818.39
2017-12-16T23:20:31.613Z,99822.08
2017-12-16T23:22:59.079Z,99823.36
2017-12-16T23:25:26.583Z,99821.73
2017-12-16T23:27:54.184Z,99824.28
2017-12-16T23:30:21.711Z,99825.20
2017-12-16T23:32:49.220Z,99825.13
2017-12-16T23:35:16.683Z,99829.54
2017-12-16T23:37:44.132Z,99832.79
2017-12-16T23:40:11.733Z,99827.77
2017-12-16T23:42:39.325Z,99832.31
2017-12-16T23:45:06.831Z,99835.53
2017-12-16T23:47:34.352Z,99837.66
2017-12-16T23:50:01.870Z,99832.84
2017-12-16T23:52:29.371Z,99838.36
2017-12-16T23:54:56.898Z,99844.09
2017-12-16T23:57:24.454Z,99852.98
2017-12-16T23:59:51.996Z,99849.07
